Time,TemperatureF,DewpointF,PressureIn,WindDirection,WindDirectionDegrees,WindSpeedMPH,WindSpeedGustMPH,Humidity,HourlyPrecipIn,Conditions,Clouds,dailyrainin,SoftwareType,DateUTC
2013-12-21 00:01:00,65.3,65.3,29.83,ESE,114,5.8,5.8,100,0.00,,SKC,0.00,VWS V14.01,2013-12-21 06:01:00,
2013-12-21 00:06:00,65.5,65.5,29.83,ESE,120,3.6,6.3,100,0.00,,SKC,0.00,VWS V14.01,2013-12-21 06:06:00,
2013-12-21 00:11:00,65.5,65.5,29.83,ESE,104,5.8,6.3,100,0.00,,SKC,0.00,VWS V14.01,2013-12-21 06:11:00,
2013-12-21 00:16:00,65.5,65.5,29.83,East,83,7.2,7.2,100,0.00,,SKC,0.00,VWS V14.01,2013-12-21 06:16:00,
2013-12-21 00:21:00,65.5,65.5,29.83,ESE,118,4.0,5.8,100,0.00,,SKC,0.00,VWS V14.01,2013-12-21 06:21:00,
2013-12-21 00:26:00,65.5,65.5,29.83,ESE,105,5.4,5.4,100,0.00,,SKC,0.00,VWS V14.01,2013-12-21 06:26:00,
2013-12-21 00:31:00,65.5,65.5,29.83,ESE,104,3.6,7.6,100,0.00,,SKC,0.00,VWS V14.01,2013-12-21 06:31:00,
2013-12-21 00:33:00,65.5,65.5,29.83,SE,146,4.0,4.0,100,0.00,,SKC,0.00,VWS V14.01,2013-12-21 06:33:00,
2013-12-21 00:38:00,65.5,65.5,29.83,SE,127,4.0,6.3,100,0.00,,SKC,0.00,VWS V14.01,2013-12-21 06:38:00,
2013-12-21 00:43:00,65.5,65.5,29.83,SE,132,5.8,5.8,100,0.00,,SKC,0.00,VWS V14.01,2013-12-21 06:43:00,
2013-12-21 00:48:00,65.5,65.5,29.83,ESE,119,3.1,3.6,100,0.00,,SKC,0.00,VWS V14.01,2013-12-21 06:48:00,
2013-12-21 00:53:00,65.7,65.7,29.83,East,98,4.0,5.4,100,0.00,,SKC,0.00,VWS V14.01,2013-12-21 06:53:00,
2013-12-21 00:58:00,65.7,65.7,29.83,East,96,6.3,6.3,100,0.00,,SKC,0.00,VWS V14.01,2013-12-21 06:58:00,
2013-12-21 01:03:00,65.7,65.7,29.83,East,84,4.5,4.5,100,0.00,,SKC,0.00,VWS V14.01,2013-12-21 07:03:00,
2013-12-21 01:08:00,65.7,65.7,29.83,SSE,152,3.1,3.1,100,0.00,,SKC,0.00,VWS V14.01,2013-12-21 07:08:00,
2013-12-21 01:13:00,65.8,65.8,29.83,ESE,117,3.1,5.4,100,0.00,,SKC,0.00,VWS V14.01,2013-12-21 07:13:00,
2013-12-21 01:18:00,66.0,66.0,29.80,SSE,165,4.9,4.9,100,0.00,,SKC,0.00,VWS V14.01,2013-12-21 07:18:00,
2013-12-21 01:23:00,66.0,66.0,29.80,SSE,149,4.5,8.1,100,0.00,,SKC,0.00,VWS V14.01,2013-12-21 07:23:00,
2013-12-21 01:28:00,66.2,66.2,29.80,SE,125,4.0,5.8,100,0.00,,SKC,0.00,VWS V14.01,2013-12-21 07:28:00,
2013-12-21 01:33:00,66.4,66.4,29.83,SE,131,3.6,8.1,100,0.00,,SKC,0.00,VWS V14.01,2013-12-21 07:33:00,
2013-12-21 01:38:00,66.4,66.4,29.83,ESE,110,3.1,5.8,100,0.00,,SKC,0.00,VWS V14.01,2013-12-21 07:38:00,
2013-12-21 01:43:00,66.4,66.4,29.83,East,95,5.8,5.8,100,0.00,,SKC,0.00,VWS V14.01,2013-12-21 07:43:00,
2013-12-21 01:48:00,66.4,66.4,29.80,SSE,150,3.6,5.8,100,0.00,,SKC,0.00,VWS V14.01,2013-12-21 07:48:00,
2013-12-21 01:53:00,66.4,66.4,29.80,ESE,115,4.9,7.6,100,0.00,,SKC,0.00,VWS V14.01,2013-12-21 07:53:00,
2013-12-21 01:57:00,66.4,66.4,29.80,ESE,104,4.0,4.0,100,0.00,,SKC,0.00,VWS V14.01,2013-12-21 07:57:00,
2013-12-21 02:02:00,66.4,66.4,29.80,SE,145,5.4,5.4,100,0.00,,SKC,0.00,VWS V14.01,2013-12-21 08:02:00,
2013-12-21 02:07:00,66.2,66.2,29.80,ESE,121,5.4,5.4,100,0.00,,SKC,0.00,VWS V14.01,2013-12-21 08:07:00,
2013-12-21 02:12:00,66.2,66.2,29.80,SE,127,3.1,4.9,100,0.00,,SKC,0.00,VWS V14.01,2013-12-21 08:12:00,
2013-12-21 02:17:00,66.2,66.2,29.80,SE,146,5.4,5.4,100,0.00,,SKC,0.00,VWS V14.01,2013-12-21 08:17:00,
2013-12-21 02:22:00,66.2,66.2,29.80,ESE,118,4.0,4.0,100,0.00,,SKC,0.00,VWS V14.01,2013-12-21 08:22:00,
2013-12-21 02:27:00,66.2,66.2,29.80,SE,137,4.0,6.3,100,0.00,,SKC,0.00,VWS V14.01,2013-12-21 08:27:00,
2013-12-21 02:32:00,66.0,66.0,29.80,East,80,3.1,4.0,100,0.00,,SKC,0.00,VWS V14.01,2013-12-21 08:32:00,
2013-12-21 02:37:00,66.0,66.0,29.80,East,93,2.7,4.0,100,0.00,,SKC,0.00,VWS V14.01,2013-12-21 08:37:00,
2013-12-21 02:42:00,66.0,66.0,29.80,East,87,3.6,4.9,100,0.00,,SKC,0.00,VWS V14.01,2013-12-21 08:42:00,
2013-12-21 02:47:00,65.8,65.8,29.80,East,100,2.7,4.0,100,0.00,,SKC,0.00,VWS V14.01,2013-12-21 08:47:00,
2013-12-21 02:52:00,65.8,65.8,29.80,ENE,77,3.1,5.4,100,0.00,,SKC,0.00,VWS V14.01,2013-12-21 08:52:00,
2013-12-21 02:57:00,65.7,65.7,29.80,East,90,0.0,3.6,100,0.00,,SKC,0.00,VWS V14.01,2013-12-21 08:57:00,
2013-12-21 03:02:00,65.7,65.7,29.80,ESE,102,2.7,4.0,100,0.00,,SKC,0.00,VWS V14.01,2013-12-21 09:02:00,
2013-12-21 03:07:00,65.5,65.5,29.80,ESE,103,3.6,4.0,100,0.00,,SKC,0.00,VWS V14.01,2013-12-21 09:07:00,
2013-12-21 03:12:00,65.5,65.5,29.80,ESE,105,3.1,4.0,100,0.00,,SKC,0.00,VWS V14.01,2013-12-21 09:12:00,
2013-12-21 03:17:00,65.5,65.5,29.80,East,92,5.8,6.3,100,0.00,,SKC,0.00,VWS V14.01,2013-12-21 09:17:00,
2013-12-21 03:22:00,65.3,65.3,29.80,East,98,5.4,6.3,100,0.00,,SKC,0.00,VWS V14.01,2013-12-21 09:22:00,
2013-12-21 03:27:00,65.3,65.3,29.80,East,98,4.0,4.0,100,0.00,,SKC,0.00,VWS V14.01,2013-12-21 09:27:00,
2013-12-21 03:32:00,65.3,65.3,29.80,SSE,150,5.8,7.6,100,0.00,,SKC,0.00,VWS V14.01,2013-12-21 09:32:00,
2013-12-21 03:37:00,65.3,65.3,29.80,ESE,109,3.1,3.1,100,0.00,,SKC,0.00,VWS V14.01,2013-12-21 09:37:00,
2013-12-21 03:42:00,65.1,65.1,29.80,East,101,4.0,4.0,100,0.00,,SKC,0.00,VWS V14.01,2013-12-21 09:42:00,
2013-12-21 03:47:00,64.9,64.9,29.77,SE,129,3.6,6.3,100,0.00,,SKC,0.00,VWS V14.01,2013-12-21 09:47:00,
2013-12-21 03:52:00,64.8,64.8,29.77,SE,130,3.1,5.4,100,0.00,,SKC,0.00,VWS V14.01,2013-12-21 09:52:00,
2013-12-21 03:57:00,64.8,64.8,29.77,East,96,3.1,3.1,100,0.00,,SKC,0.00,VWS V14.01,2013-12-21 09:57:00,
2013-12-21 04:02:00,64.8,64.8,29.77,SE,141,5.8,5.8,100,0.00,,SKC,0.00,VWS V14.01,2013-12-21 10:02:00,
2013-12-21 04:07:00,64.9,64.9,29.77,ESE,119,4.9,6.3,100,0.00,,SKC,0.00,VWS V14.01,2013-12-21 10:07:00,
2013-12-21 04:12:00,65.1,65.1,29.77,East,100,6.3,6.3,100,0.00,,SKC,0.00,VWS V14.01,2013-12-21 10:12:00,
2013-12-21 04:17:00,65.3,65.3,29.77,East,96,4.0,4.9,100,0.00,,SKC,0.00,VWS V14.01,2013-12-21 10:17:00,
2013-12-21 04:22:00,65.3,65.3,29.77,SE,142,3.1,3.1,100,0.00,,SKC,0.00,VWS V14.01,2013-12-21 10:22:00,
2013-12-21 04:27:00,65.5,65.5,29.77,SE,141,6.3,7.6,100,0.00,,SKC,0.00,VWS V14.01,2013-12-21 10:27:00,
2013-12-21 04:32:00,65.7,65.7,29.77,ESE,123,3.1,3.1,100,0.00,,SKC,0.00,VWS V14.01,2013-12-21 10:32:00,
2013-12-21 04:37:00,65.5,65.5,29.77,ESE,108,3.6,3.6,100,0.00,,SKC,0.00,VWS V14.01,2013-12-21 10:37:00,
2013-12-21 04:42:00,65.3,65.3,29.77,ESE,106,3.1,3.1,100,0.00,,SKC,0.00,VWS V14.01,2013-12-21 10:42:00,
2013-12-21 04:47:00,65.1,65.1,29.77,ESE,105,2.7,3.6,100,0.00,,SKC,0.00,VWS V14.01,2013-12-21 10:47:00,
2013-12-21 04:52:00,65.1,65.1,29.77,East,98,3.6,5.8,100,0.00,,SKC,0.00,VWS V14.01,2013-12-21 10:52:00,
2013-12-21 04:57:00,65.1,65.1,29.77,SE,137,3.6,4.9,100,0.00,,SKC,0.00,VWS V14.01,2013-12-21 10:57:00,
2013-12-21 05:02:00,65.3,65.3,29.77,SSE,147,3.6,3.6,100,0.00,,SKC,0.00,VWS V14.01,2013-12-21 11:02:00,
2013-12-21 05:07:00,65.3,65.3,29.77,SE,124,3.1,3.6,100,0.00,,SKC,0.00,VWS V14.01,2013-12-21 11:07:00,
2013-12-21 05:12:00,65.1,65.1,29.77,East,92,3.6,5.8,100,0.00,,SKC,0.00,VWS V14.01,2013-12-21 11:12:00,
2013-12-21 05:17:00,65.1,65.1,29.77,ESE,104,4.9,4.9,100,0.00,,SKC,0.00,VWS V14.01,2013-12-21 11:17:00,
2013-12-21 05:22:00,65.1,65.1,29.77,ESE,107,5.4,5.4,100,0.00,,SKC,0.00,VWS V14.01,2013-12-21 11:22:00,
2013-12-21 05:27:00,64.9,64.9,29.77,SSE,152,6.3,8.7,100,0.00,,SKC,0.00,VWS V14.01,2013-12-21 11:27:00,
2013-12-21 05:32:00,64.9,64.9,29.77,East,80,8.1,8.1,100,0.00,,SKC,0.00,VWS V14.01,2013-12-21 11:32:00,
2013-12-21 05:37:00,64.8,64.8,29.77,ESE,119,6.3,6.3,100,0.00,,SKC,0.00,VWS V14.01,2013-12-21 11:37:00,
2013-12-21 05:42:00,64.8,64.8,29.77,East,95,3.1,4.0,100,0.00,,SKC,0.00,VWS V14.01,2013-12-21 11:42:00,
2013-12-21 05:47:00,64.8,64.8,29.77,ESE,120,3.1,3.1,100,0.00,,SKC,0.00,VWS V14.01,2013-12-21 11:47:00,
2013-12-21 05:52:00,64.6,64.6,29.77,SE,127,3.1,3.1,100,0.00,,SKC,0.00,VWS V14.01,2013-12-21 11:52:00,
2013-12-21 05:57:00,64.6,64.6,29.77,SSE,150,4.9,4.9,100,0.00,,SKC,0.00,VWS V14.01,2013-12-21 11:57:00,
2013-12-21 06:02:00,64.6,64.6,29.77,SE,133,3.6,3.6,100,0.00,,SKC,0.00,VWS V14.01,2013-12-21 12:02:00,
2013-12-21 06:07:00,64.6,64.6,29.77,ESE,109,4.0,6.3,100,0.00,,SKC,0.00,VWS V14.01,2013-12-21 12:07:00,
2013-12-21 06:12:00,64.6,64.6,29.77,ESE,111,5.8,5.8,100,0.00,,SKC,0.00,VWS V14.01,2013-12-21 12:12:00,
2013-12-21 06:17:00,64.4,64.4,29.77,SSE,155,3.6,3.6,100,0.00,,SKC,0.00,VWS V14.01,2013-12-21 12:17:00,
2013-12-21 06:22:00,64.4,64.4,29.77,SE,125,3.1,5.4,100,0.00,,SKC,0.00,VWS V14.01,2013-12-21 12:22:00,
2013-12-21 06:27:00,64.2,64.2,29.77,East,80,3.1,3.1,100,0.00,,SKC,0.00,VWS V14.01,2013-12-21 12:27:00,
2013-12-21 06:32:00,64.2,64.2,29.77,SSE,154,2.7,3.1,100,0.00,,SKC,0.00,VWS V14.01,2013-12-21 12:32:00,
2013-12-21 06:37:00,64.0,64.0,29.77,ESE,105,3.1,3.1,100,0.00,,SKC,0.00,VWS V14.01,2013-12-21 12:37:00,
2013-12-21 06:42:00,64.0,64.0,29.77,East,100,3.6,5.8,100,0.00,,SKC,0.00,VWS V14.01,2013-12-21 12:42:00,
2013-12-21 06:47:00,64.2,64.2,29.77,SE,136,3.6,3.6,100,0.00,,SKC,0.00,VWS V14.01,2013-12-21 12:47:00,
2013-12-21 06:52:00,64.4,64.4,29.77,SSE,158,3.6,4.0,100,0.00,,SKC,0.00,VWS V14.01,2013-12-21 12:52:00,
2013-12-21 06:57:00,64.6,64.6,29.77,ESE,118,5.4,6.3,100,0.00,,SKC,0.00,VWS V14.01,2013-12-21 12:57:00,
2013-12-21 07:02:00,64.9,64.9,29.77,SSE,155,4.0,6.3,100,0.00,,SKC,0.00,VWS V14.01,2013-12-21 13:02:00,
2013-12-21 07:07:00,65.1,65.1,29.77,SE,143,5.4,7.6,100,0.00,,SKC,0.00,VWS V14.01,2013-12-21 13:07:00,
2013-12-21 07:12:00,65.5,65.5,29.77,SE,146,5.8,8.1,100,0.00,,SKC,0.00,VWS V14.01,2013-12-21 13:12:00,
2013-12-21 07:17:00,65.7,65.7,29.77,ESE,116,8.1,8.1,100,0.00,,SKC,0.00,VWS V14.01,2013-12-21 13:17:00,
2013-12-21 07:22:00,65.8,65.8,29.77,ESE,115,4.9,5.8,100,0.00,,SKC,0.00,VWS V14.01,2013-12-21 13:22:00,
2013-12-21 07:27:00,65.7,65.7,29.77,SE,131,4.0,7.6,100,0.00,,SKC,0.00,VWS V14.01,2013-12-21 13:27:00,
2013-12-21 07:31:00,65.7,65.7,29.74,ESE,113,6.3,6.3,100,0.00,,SKC,0.00,VWS V14.01,2013-12-21 13:31:00,
2013-12-21 07:36:00,65.7,65.7,29.74,SE,142,4.0,4.9,100,0.00,,SKC,0.00,VWS V14.01,2013-12-21 13:36:00,
2013-12-21 07:41:00,65.5,65.5,29.74,East,99,3.1,5.4,100,0.00,,SKC,0.00,VWS V14.01,2013-12-21 13:41:00,
2013-12-21 07:46:00,65.5,65.5,29.77,ESE,103,4.0,4.9,100,0.00,,SKC,0.00,VWS V14.01,2013-12-21 13:46:00,
2013-12-21 07:51:00,65.5,65.5,29.77,ESE,103,5.4,8.1,100,0.00,,SKC,0.00,VWS V14.01,2013-12-21 13:51:00,
2013-12-21 07:56:00,65.5,65.5,29.77,SE,145,3.1,5.4,100,0.00,,SKC,0.00,VWS V14.01,2013-12-21 13:56:00,
2013-12-21 08:01:00,65.5,65.5,29.74,East,99,3.1,5.4,100,0.00,,SKC,0.00,VWS V14.01,2013-12-21 14:01:00,
2013-12-21 08:06:00,65.7,65.7,29.74,ENE,63,5.8,5.8,100,0.00,,SKC,0.00,VWS V14.01,2013-12-21 14:06:00,
2013-12-21 08:11:00,65.7,65.7,29.74,ESE,109,5.4,5.4,100,0.00,,SKC,0.00,VWS V14.01,2013-12-21 14:11:00,
2013-12-21 08:16:00,65.8,65.8,29.74,SE,146,2.7,5.8,100,0.00,,SKC,0.00,VWS V14.01,2013-12-21 14:16:00,
2013-12-21 08:21:00,65.8,65.8,29.74,ESE,105,4.0,5.4,100,0.00,,SKC,0.00,VWS V14.01,2013-12-21 14:21:00,
2013-12-21 08:26:00,65.8,65.8,29.74,East,97,4.9,4.9,100,0.00,,SKC,0.00,VWS V14.01,2013-12-21 14:26:00,
2013-12-21 08:31:00,65.8,65.8,29.74,SE,137,4.9,7.6,100,0.00,,SKC,0.00,VWS V14.01,2013-12-21 14:31:00,
2013-12-21 08:36:00,65.7,65.7,29.74,ESE,113,8.3,8.3,100,0.00,,SKC,0.00,VWS V14.01,2013-12-21 14:36:00,
2013-12-21 08:41:00,65.8,65.8,29.74,ESE,111,3.6,8.1,100,0.00,,SKC,0.00,VWS V14.01,2013-12-21 14:41:00,
2013-12-21 08:46:00,65.8,65.8,29.77,ESE,103,7.6,7.6,100,0.00,,SKC,0.00,VWS V14.01,2013-12-21 14:46:00,
2013-12-21 08:51:00,66.0,66.0,29.77,East,99,2.7,5.8,100,0.00,,SKC,0.00,VWS V14.01,2013-12-21 14:51:00,
2013-12-21 08:56:00,66.4,66.4,29.77,SE,146,5.8,5.8,100,0.00,,SKC,0.00,VWS V14.01,2013-12-21 14:56:00,
2013-12-21 09:01:00,66.6,66.6,29.74,SE,139,7.6,7.6,100,0.00,,SKC,0.00,VWS V14.01,2013-12-21 15:01:00,
2013-12-21 09:06:00,66.6,66.6,29.74,ESE,120,7.6,7.6,100,0.00,,SKC,0.00,VWS V14.01,2013-12-21 15:06:00,
2013-12-21 09:11:00,66.7,66.7,29.74,SE,131,5.8,7.6,100,0.00,,SKC,0.00,VWS V14.01,2013-12-21 15:11:00,
2013-12-21 09:16:00,66.7,66.7,29.77,SE,141,9.6,9.6,100,0.00,,SKC,0.00,VWS V14.01,2013-12-21 15:16:00,
2013-12-21 09:21:00,66.7,66.7,29.77,SE,142,7.6,8.7,100,0.00,,SKC,0.00,VWS V14.01,2013-12-21 15:21:00,
2013-12-21 09:26:00,67.1,67.1,29.77,SE,146,5.4,7.6,100,0.00,,SKC,0.00,VWS V14.01,2013-12-21 15:26:00,
2013-12-21 09:31:00,67.1,67.1,29.77,SSE,155,8.3,8.3,100,0.00,,SKC,0.00,VWS V14.01,2013-12-21 15:31:00,
2013-12-21 09:36:00,67.8,67.8,29.77,ESE,114,8.1,10.5,100,0.00,,SKC,0.00,VWS V14.01,2013-12-21 15:36:00,
2013-12-21 09:41:00,68.2,68.2,29.77,SE,141,11.0,11.0,100,0.00,,SKC,0.00,VWS V14.01,2013-12-21 15:41:00,
2013-12-21 09:46:00,68.4,68.4,29.77,South,169,6.3,6.3,100,0.00,,SKC,0.00,VWS V14.01,2013-12-21 15:46:00,
2013-12-21 09:51:00,68.4,68.4,29.77,SE,141,10.5,10.5,100,0.00,,SKC,0.00,VWS V14.01,2013-12-21 15:51:00,
2013-12-21 09:56:00,68.5,68.5,29.77,SE,139,4.0,5.4,100,0.00,,SKC,0.00,VWS V14.01,2013-12-21 15:56:00,
2013-12-21 10:01:00,68.9,68.9,29.77,SE,134,3.1,7.6,100,0.00,,SKC,0.00,VWS V14.01,2013-12-21 16:01:00,
2013-12-21 10:06:00,69.1,69.1,29.77,East,96,5.8,6.3,100,0.00,,SKC,0.00,VWS V14.01,2013-12-21 16:06:00,
2013-12-21 10:11:00,69.3,69.3,29.77,SSE,163,8.1,8.7,100,0.00,,SKC,0.00,VWS V14.01,2013-12-21 16:11:00,
2013-12-21 10:16:00,69.3,69.3,29.77,SE,143,4.9,6.3,100,0.00,,SKC,0.00,VWS V14.01,2013-12-21 16:16:00,
2013-12-21 10:21:00,68.9,68.9,29.77,ESE,113,5.4,5.4,100,0.00,,SKC,0.00,VWS V14.01,2013-12-21 16:21:00,
2013-12-21 10:26:00,69.1,69.1,29.77,SE,134,5.8,5.8,100,0.00,,SKC,0.00,VWS V14.01,2013-12-21 16:26:00,
2013-12-21 10:31:00,69.1,69.1,29.77,SSE,162,3.6,4.9,100,0.00,,SKC,0.00,VWS V14.01,2013-12-21 16:31:00,
2013-12-21 10:36:00,69.3,69.3,29.77,SSE,156,6.3,6.3,100,0.00,,SKC,0.00,VWS V14.01,2013-12-21 16:36:00,
2013-12-21 10:41:00,69.1,69.1,29.77,East,95,3.6,5.4,100,0.00,,SKC,0.00,VWS V14.01,2013-12-21 16:41:00,
2013-12-21 10:46:00,69.1,69.1,29.77,ESE,110,4.9,4.9,100,0.00,,SKC,0.00,VWS V14.01,2013-12-21 16:46:00,
2013-12-21 10:51:00,69.1,69.1,29.77,SE,146,7.6,7.6,100,0.00,,SKC,0.00,VWS V14.01,2013-12-21 16:51:00,
2013-12-21 10:56:00,69.1,69.1,29.77,SE,129,6.7,6.7,100,0.00,,SKC,0.00,VWS V14.01,2013-12-21 16:56:00,
2013-12-21 11:01:00,69.6,69.6,29.74,SSE,153,4.0,4.0,100,0.00,,SKC,0.00,VWS V14.01,2013-12-21 17:01:00,
2013-12-21 11:06:00,70.2,70.2,29.74,East,96,5.4,5.4,100,0.00,,SKC,0.00,VWS V14.01,2013-12-21 17:06:00,
2013-12-21 11:11:00,70.2,70.2,29.74,SE,124,4.9,4.9,100,0.00,,SKC,0.00,VWS V14.01,2013-12-21 17:11:00,
2013-12-21 11:16:00,70.2,70.2,29.74,East,95,3.1,3.1,100,0.00,,SKC,0.00,VWS V14.01,2013-12-21 17:16:00,
2013-12-21 11:21:00,70.2,70.2,29.74,ENE,60,4.0,5.4,100,0.00,,SKC,0.00,VWS V14.01,2013-12-21 17:21:00,
2013-12-21 11:26:00,70.2,69.6,29.74,East,100,3.1,3.1,98,0.00,,SKC,0.00,VWS V14.01,2013-12-21 17:26:00,
2013-12-21 11:31:00,70.3,69.2,29.74,ESE,119,6.3,7.6,96,0.00,,SKC,0.00,VWS V14.01,2013-12-21 17:31:00,
2013-12-21 11:36:00,70.2,66.4,29.74,SE,137,4.9,7.6,88,0.00,,SKC,0.00,VWS V14.01,2013-12-21 17:36:00,
2013-12-21 11:41:00,70.2,66.4,29.74,SE,131,4.0,4.0,88,0.00,,SKC,0.00,VWS V14.01,2013-12-21 17:41:00,
2013-12-21 11:46:00,70.2,68.4,29.74,SSE,148,3.1,7.2,94,0.00,,SKC,0.00,VWS V14.01,2013-12-21 17:46:00,
2013-12-21 11:51:00,70.0,69.4,29.74,SE,140,6.7,7.6,98,0.00,,SKC,0.00,VWS V14.01,2013-12-21 17:51:00,
2013-12-21 11:56:00,70.0,70.0,29.74,ESE,122,4.0,5.8,100,0.00,,SKC,0.00,VWS V14.01,2013-12-21 17:56:00,
2013-12-21 12:01:00,70.2,70.2,29.74,SE,138,10.1,10.1,100,0.00,,SKC,0.00,VWS V14.01,2013-12-21 18:01:00,
2013-12-21 12:06:00,70.3,70.3,29.74,SE,141,5.4,5.4,100,0.00,,SKC,0.00,VWS V14.01,2013-12-21 18:06:00,
2013-12-21 12:11:00,70.3,70.3,29.74,East,81,2.7,5.4,100,0.00,,SKC,0.00,VWS V14.01,2013-12-21 18:11:00,
2013-12-21 12:16:00,70.3,70.3,29.71,SE,132,6.3,6.3,100,0.00,,SKC,0.00,VWS V14.01,2013-12-21 18:16:00,
2013-12-21 12:21:00,70.2,67.7,29.71,SE,131,6.3,6.7,92,0.00,,SKC,0.00,VWS V14.01,2013-12-21 18:21:00,
2013-12-21 12:26:00,70.2,69.0,29.71,SE,135,5.8,5.8,96,0.00,,SKC,0.00,VWS V14.01,2013-12-21 18:26:00,
2013-12-21 12:31:00,70.2,68.4,29.71,SE,133,2.7,8.7,94,0.00,,SKC,0.00,VWS V14.01,2013-12-21 18:31:00,
2013-12-21 12:36:00,70.2,69.6,29.71,SE,130,6.3,8.7,98,0.00,,SKC,0.00,VWS V14.01,2013-12-21 18:36:00,
2013-12-21 12:41:00,70.3,70.3,29.71,SE,140,5.8,7.6,100,0.00,,SKC,0.00,VWS V14.01,2013-12-21 18:41:00,
2013-12-21 12:45:00,70.3,70.3,29.71,SSE,156,4.9,6.3,100,0.00,,SKC,0.00,VWS V14.01,2013-12-21 18:45:00,
2013-12-21 12:50:00,70.5,70.5,29.71,SE,143,0.0,3.1,100,0.00,,SKC,0.00,VWS V14.01,2013-12-21 18:50:00,
2013-12-21 12:55:00,70.5,70.5,29.71,SE,142,0.0,0.0,100,0.00,,SKC,0.00,VWS V14.01,2013-12-21 18:55:00,
2013-12-21 13:01:00,70.5,70.5,29.71,SE,140,5.4,5.4,100,0.00,,SKC,0.00,VWS V14.01,2013-12-21 19:01:00,
2013-12-21 13:06:00,70.5,69.9,29.71,SE,133,5.4,5.8,98,0.00,,SKC,0.00,VWS V14.01,2013-12-21 19:06:00,
2013-12-21 13:11:00,70.7,70.1,29.71,East,95,3.6,5.4,98,0.00,,SKC,0.00,VWS V14.01,2013-12-21 19:11:00,
2013-12-21 13:16:00,70.7,65.6,29.71,SE,139,3.1,4.0,84,0.00,,SKC,0.00,VWS V14.01,2013-12-21 19:16:00,
2013-12-21 13:21:00,70.7,66.3,29.71,SSE,148,2.7,5.4,86,0.00,,SKC,0.00,VWS V14.01,2013-12-21 19:21:00,
2013-12-21 13:26:00,70.7,64.9,29.71,ESE,111,4.0,4.5,82,0.00,,SKC,0.00,VWS V14.01,2013-12-21 19:26:00,
2013-12-21 13:31:00,70.7,63.5,29.68,ESE,113,6.3,6.3,78,0.00,,SKC,0.00,VWS V14.01,2013-12-21 19:31:00,
2013-12-21 13:36:00,70.5,63.3,29.68,ESE,110,3.6,3.6,78,0.00,,SKC,0.00,VWS V14.01,2013-12-21 19:36:00,
2013-12-21 13:41:00,70.3,63.2,29.68,SSE,155,0.0,6.3,78,0.00,,SKC,0.00,VWS V14.01,2013-12-21 19:41:00,
2013-12-21 13:45:00,70.5,64.8,29.68,SE,128,8.1,8.1,82,0.00,,SKC,0.00,VWS V14.01,2013-12-21 19:45:00,
2013-12-21 13:50:00,70.5,64.1,29.68,SE,128,5.4,8.7,80,0.00,,SKC,0.00,VWS V14.01,2013-12-21 19:50:00,
2013-12-21 13:55:00,70.5,64.8,29.68,East,101,6.3,6.3,82,0.00,,SKC,0.00,VWS V14.01,2013-12-21 19:55:00,
2013-12-21 14:00:00,70.5,64.1,29.68,SE,129,5.4,6.3,80,0.00,,SKC,0.00,VWS V14.01,2013-12-21 20:00:00,
2013-12-21 14:05:00,70.5,65.5,29.68,SE,136,11.0,11.0,84,0.00,,SKC,0.00,VWS V14.01,2013-12-21 20:05:00,
2013-12-21 14:10:00,70.5,66.8,29.68,South,190,5.8,8.1,88,0.00,,SKC,0.00,VWS V14.01,2013-12-21 20:10:00,
2013-12-21 14:15:00,70.5,68.7,29.68,SE,125,4.0,4.0,94,0.00,,SKC,0.00,VWS V14.01,2013-12-21 20:15:00,
2013-12-21 14:20:00,70.5,68.7,29.68,SE,128,4.0,8.3,94,0.00,,SKC,0.00,VWS V14.01,2013-12-21 20:20:00,
2013-12-21 14:25:00,70.7,68.9,29.68,East,80,8.3,8.3,94,0.00,,SKC,0.00,VWS V14.01,2013-12-21 20:25:00,
2013-12-21 14:30:00,70.9,69.1,29.68,ESE,113,2.7,5.4,94,0.00,,SKC,0.00,VWS V14.01,2013-12-21 20:30:00,
2013-12-21 14:35:00,71.1,68.0,29.68,East,95,4.0,4.0,90,0.00,,SKC,0.00,VWS V14.01,2013-12-21 20:35:00,
2013-12-21 14:40:00,71.1,63.1,29.68,SE,143,4.9,5.4,76,0.00,,SKC,0.00,VWS V14.01,2013-12-21 20:40:00,
2013-12-21 14:45:00,70.9,62.2,29.68,SE,128,4.0,5.4,74,0.00,,SKC,0.00,VWS V14.01,2013-12-21 20:45:00,
2013-12-21 14:50:00,71.1,63.9,29.68,ESE,112,7.6,7.6,78,0.00,,SKC,0.00,VWS V14.01,2013-12-21 20:50:00,
2013-12-21 14:55:00,71.2,63.3,29.68,SE,141,4.9,5.4,76,0.00,,SKC,0.00,VWS V14.01,2013-12-21 20:55:00,
2013-12-21 15:00:00,71.1,61.6,29.68,SE,126,4.0,5.8,72,0.00,,SKC,0.00,VWS V14.01,2013-12-21 21:00:00,
2013-12-21 15:05:00,70.9,63.0,29.68,ENE,78,3.6,4.0,76,0.00,,SKC,0.00,VWS V14.01,2013-12-21 21:05:00,
2013-12-21 15:10:00,70.7,62.8,29.68,East,94,3.6,5.4,76,0.00,,SKC,0.00,VWS V14.01,2013-12-21 21:10:00,
2013-12-21 15:15:00,70.5,62.6,29.68,SE,137,4.0,4.0,76,0.00,,SKC,0.00,VWS V14.01,2013-12-21 21:15:00,
2013-12-21 15:20:00,70.3,63.9,29.68,East,84,4.0,5.8,80,0.00,,SKC,0.00,VWS V14.01,2013-12-21 21:20:00,
2013-12-21 15:25:00,70.2,64.4,29.68,SE,135,3.1,5.4,82,0.00,,SKC,0.00,VWS V14.01,2013-12-21 21:25:00,
2013-12-21 15:30:00,70.2,65.8,29.68,ENE,71,4.9,5.4,86,0.00,,SKC,0.00,VWS V14.01,2013-12-21 21:30:00,
2013-12-21 15:35:00,69.8,66.1,29.68,ESE,120,3.6,3.6,88,0.00,,SKC,0.00,VWS V14.01,2013-12-21 21:35:00,
2013-12-21 15:40:00,69.6,67.2,29.68,East,79,0.0,4.9,92,0.00,,SKC,0.00,VWS V14.01,2013-12-21 21:40:00,
2013-12-21 15:45:00,69.8,68.0,29.68,ESE,102,5.4,5.4,94,0.00,,SKC,0.00,VWS V14.01,2013-12-21 21:45:00,
2013-12-21 15:50:00,69.6,68.4,29.68,ESE,106,2.2,3.6,96,0.00,,SKC,0.00,VWS V14.01,2013-12-21 21:50:00,
2013-12-21 15:55:00,69.4,68.8,29.68,East,98,2.7,3.6,98,0.00,,SKC,0.00,VWS V14.01,2013-12-21 21:55:00,
2013-12-21 16:00:00,69.4,69.4,29.68,East,99,2.7,4.0,100,0.00,,SKC,0.00,VWS V14.01,2013-12-21 22:00:00,
2013-12-21 16:05:00,69.4,69.4,29.68,SE,140,3.1,3.1,100,0.00,,SKC,0.00,VWS V14.01,2013-12-21 22:05:00,
2013-12-21 16:10:00,69.3,69.3,29.68,SE,144,2.7,3.6,100,0.00,,SKC,0.00,VWS V14.01,2013-12-21 22:10:00,
2013-12-21 16:15:00,69.1,69.1,29.68,SE,146,3.6,3.6,100,0.00,,SKC,0.00,VWS V14.01,2013-12-21 22:15:00,
2013-12-21 16:20:00,68.9,68.9,29.68,SE,126,3.1,3.6,100,0.00,,SKC,0.00,VWS V14.01,2013-12-21 22:20:00,
2013-12-21 16:25:00,68.7,68.7,29.68,SE,130,0.0,0.0,100,0.00,,SKC,0.00,VWS V14.01,2013-12-21 22:25:00,
2013-12-21 16:30:00,68.5,68.5,29.68,ESE,122,0.0,2.7,100,0.00,,SKC,0.00,VWS V14.01,2013-12-21 22:30:00,
2013-12-21 16:35:00,68.4,68.4,29.68,East,79,0.0,3.6,100,0.00,,SKC,0.00,VWS V14.01,2013-12-21 22:35:00,
2013-12-21 16:40:00,68.4,68.4,29.68,ENE,73,0.0,3.1,100,0.00,,SKC,0.00,VWS V14.01,2013-12-21 22:40:00,
2013-12-21 16:45:00,68.2,68.2,29.68,ENE,76,2.2,2.2,100,0.00,,SKC,0.00,VWS V14.01,2013-12-21 22:45:00,
2013-12-21 16:50:00,68.2,68.2,29.68,East,98,0.0,0.0,100,0.00,,SKC,0.00,VWS V14.01,2013-12-21 22:50:00,
2013-12-21 16:55:00,68.2,68.2,29.68,East,85,0.0,0.0,100,0.00,,SKC,0.00,VWS V14.01,2013-12-21 22:55:00,
2013-12-21 17:00:00,68.0,68.0,29.68,East,98,3.1,3.1,100,0.00,,SKC,0.00,VWS V14.01,2013-12-21 23:00:00,
2013-12-21 17:05:00,68.0,68.0,29.68,East,87,2.7,4.0,100,0.00,,SKC,0.00,VWS V14.01,2013-12-21 23:05:00,
2013-12-21 17:10:00,67.8,67.8,29.68,ENE,78,3.6,3.6,100,0.00,,SKC,0.00,VWS V14.01,2013-12-21 23:10:00,
2013-12-21 17:15:00,67.8,67.8,29.68,ENE,71,3.6,5.4,100,0.00,,SKC,0.00,VWS V14.01,2013-12-21 23:15:00,
2013-12-21 17:20:00,67.6,67.6,29.68,ESE,115,4.0,4.0,100,0.00,,SKC,0.00,VWS V14.01,2013-12-21 23:20:00,
2013-12-21 17:25:00,67.8,67.8,29.68,ESE,110,4.0,4.0,100,0.00,,SKC,0.00,VWS V14.01,2013-12-21 23:25:00,
2013-12-21 17:30:00,67.8,67.8,29.68,East,89,2.7,2.7,100,0.00,,SKC,0.00,VWS V14.01,2013-12-21 23:30:00,
2013-12-21 17:35:00,67.8,67.8,29.68,East,79,0.0,0.0,100,0.00,,SKC,0.00,VWS V14.01,2013-12-21 23:35:00,
2013-12-21 17:40:00,67.6,67.6,29.68,East,99,2.2,2.7,100,0.00,,SKC,0.00,VWS V14.01,2013-12-21 23:40:00,
2013-12-21 17:45:00,67.6,67.6,29.71,ESE,112,2.2,2.7,100,0.00,,SKC,0.00,VWS V14.01,2013-12-21 23:45:00,
2013-12-21 17:50:00,67.6,67.6,29.71,ESE,118,3.6,3.6,100,0.00,,SKC,0.00,VWS V14.01,2013-12-21 23:50:00,
2013-12-21 17:55:00,67.5,67.5,29.71,SE,131,0.0,0.0,100,0.00,,SKC,0.00,VWS V14.01,2013-12-21 23:55:00,
2013-12-21 18:00:00,67.5,67.5,29.71,East,91,3.6,3.6,100,0.00,,SKC,0.00,VWS V14.01,2013-12-22 00:00:00,
2013-12-21 18:05:00,67.6,67.6,29.71,ESE,111,4.0,4.0,100,0.00,,SKC,0.00,VWS V14.01,2013-12-22 00:05:00,
2013-12-21 18:10:00,67.6,67.6,29.71,East,83,0.0,0.0,100,0.00,,SKC,0.00,VWS V14.01,2013-12-22 00:10:00,
2013-12-21 18:15:00,67.6,67.6,29.68,SE,133,3.1,3.1,100,0.00,,SKC,0.00,VWS V14.01,2013-12-22 00:15:00,
2013-12-21 18:20:00,67.8,67.8,29.68,SE,129,4.0,4.0,100,0.00,,SKC,0.00,VWS V14.01,2013-12-22 00:20:00,
2013-12-21 18:25:00,67.8,67.8,29.68,SE,131,3.6,3.6,100,0.00,,SKC,0.00,VWS V14.01,2013-12-22 00:25:00,
2013-12-21 18:30:00,67.8,67.8,29.71,East,100,5.8,5.8,100,0.00,,SKC,0.00,VWS V14.01,2013-12-22 00:30:00,
2013-12-21 18:35:00,67.8,67.8,29.71,East,100,4.0,4.9,100,0.00,,SKC,0.00,VWS V14.01,2013-12-22 00:35:00,
2013-12-21 18:40:00,67.8,67.8,29.71,East,97,7.2,7.2,100,0.00,,SKC,0.00,VWS V14.01,2013-12-22 00:40:00,
2013-12-21 18:45:00,67.8,67.8,29.71,ESE,107,7.6,7.6,100,0.00,,SKC,0.00,VWS V14.01,2013-12-22 00:45:00,
2013-12-21 18:50:00,67.8,67.8,29.71,SE,138,4.0,4.0,100,0.00,,SKC,0.00,VWS V14.01,2013-12-22 00:50:00,
2013-12-21 18:55:00,67.8,67.8,29.71,SSE,149,5.4,5.4,100,0.00,,SKC,0.00,VWS V14.01,2013-12-22 00:55:00,
2013-12-21 19:00:00,67.6,67.6,29.71,SE,128,6.3,6.7,100,0.00,,SKC,0.00,VWS V14.01,2013-12-22 01:00:00,
2013-12-21 19:05:00,67.6,67.6,29.71,SSE,152,5.4,6.3,100,0.00,,SKC,0.00,VWS V14.01,2013-12-22 01:05:00,
2013-12-21 19:10:00,67.6,67.6,29.71,South,171,3.6,7.2,100,0.00,,SKC,0.00,VWS V14.01,2013-12-22 01:10:00,
2013-12-21 19:15:00,67.6,67.6,29.71,SE,140,3.6,6.3,100,0.00,,SKC,0.00,VWS V14.01,2013-12-22 01:15:00,
2013-12-21 19:20:00,67.6,67.6,29.71,SE,127,4.0,4.9,100,0.00,,SKC,0.00,VWS V14.01,2013-12-22 01:20:00,
2013-12-21 19:25:00,67.6,67.6,29.71,ENE,67,0.0,4.0,100,0.00,,SKC,0.00,VWS V14.01,2013-12-22 01:25:00,
2013-12-21 19:30:00,67.6,67.6,29.71,SSE,148,2.7,2.7,100,0.00,,SKC,0.00,VWS V14.01,2013-12-22 01:30:00,
2013-12-21 19:35:00,67.6,67.6,29.71,East,82,3.1,5.8,100,0.00,,SKC,0.00,VWS V14.01,2013-12-22 01:35:00,
2013-12-21 19:40:00,67.6,67.6,29.71,SE,144,4.0,4.0,100,0.00,,SKC,0.00,VWS V14.01,2013-12-22 01:40:00,
2013-12-21 19:45:00,67.5,67.5,29.71,SE,128,4.0,4.9,100,0.00,,SKC,0.00,VWS V14.01,2013-12-22 01:45:00,
2013-12-21 19:50:00,67.5,67.5,29.71,South,169,2.2,5.4,100,0.00,,SKC,0.00,VWS V14.01,2013-12-22 01:50:00,
2013-12-21 19:55:00,67.5,67.5,29.71,SE,138,2.7,3.6,100,0.00,,SKC,0.00,VWS V14.01,2013-12-22 01:55:00,
2013-12-21 19:59:00,67.5,67.5,29.71,SE,145,3.1,5.8,100,0.00,,SKC,0.00,VWS V14.01,2013-12-22 01:59:00,
2013-12-21 20:04:00,67.5,67.5,29.71,ESE,106,3.1,5.4,100,0.00,,SKC,0.00,VWS V14.01,2013-12-22 02:04:00,
2013-12-21 20:09:00,67.5,67.5,29.71,SE,143,3.6,4.9,100,0.00,,SKC,0.00,VWS V14.01,2013-12-22 02:09:00,
2013-12-21 20:14:00,67.3,67.3,29.71,ESE,114,5.4,5.4,100,0.00,,SKC,0.00,VWS V14.01,2013-12-22 02:14:00,
2013-12-21 20:19:00,67.3,67.3,29.71,SSE,154,5.8,5.8,100,0.00,,SKC,0.00,VWS V14.01,2013-12-22 02:19:00,
2013-12-21 20:24:00,67.1,67.1,29.71,SSE,154,2.7,5.8,100,0.00,,SKC,0.00,VWS V14.01,2013-12-22 02:24:00,
2013-12-21 20:29:00,67.1,67.1,29.71,SE,128,5.8,5.8,100,0.00,,SKC,0.00,VWS V14.01,2013-12-22 02:29:00,
2013-12-21 20:34:00,67.1,67.1,29.71,SE,131,6.3,6.3,100,0.00,,SKC,0.00,VWS V14.01,2013-12-22 02:34:00,
2013-12-21 20:39:00,66.9,66.9,29.71,ESE,123,4.9,7.6,100,0.00,,SKC,0.00,VWS V14.01,2013-12-22 02:39:00,
2013-12-21 20:44:00,66.9,66.9,29.71,East,87,4.9,6.3,100,0.00,,SKC,0.00,VWS V14.01,2013-12-22 02:44:00,
2013-12-21 20:49:00,66.7,66.7,29.71,SE,136,4.0,6.3,100,0.00,,SKC,0.00,VWS V14.01,2013-12-22 02:49:00,
2013-12-21 20:54:00,66.7,66.7,29.71,SE,144,5.4,5.4,100,0.00,,SKC,0.00,VWS V14.01,2013-12-22 02:54:00,
2013-12-21 20:59:00,66.9,66.9,29.71,SSE,167,0.0,0.0,100,0.00,,SKC,0.00,VWS V14.01,2013-12-22 02:59:00,
2013-12-21 21:04:00,66.9,66.9,29.74,SE,144,4.0,5.8,100,0.00,,SKC,0.00,VWS V14.01,2013-12-22 03:04:00,
2013-12-21 21:09:00,66.9,66.9,29.74,SE,130,3.1,3.1,100,0.00,,SKC,0.00,VWS V14.01,2013-12-22 03:09:00,
2013-12-21 21:14:00,66.9,66.9,29.74,SSE,163,3.6,3.6,100,0.00,,SKC,0.00,VWS V14.01,2013-12-22 03:14:00,
2013-12-21 21:19:00,67.1,67.1,29.74,South,178,3.6,3.6,100,0.00,,SKC,0.00,VWS V14.01,2013-12-22 03:19:00,
2013-12-21 21:24:00,67.3,67.3,29.74,SE,146,8.1,8.1,100,0.00,,SKC,0.00,VWS V14.01,2013-12-22 03:24:00,
2013-12-21 21:29:00,67.3,67.3,29.74,SE,126,2.7,4.9,100,0.00,,SKC,0.00,VWS V14.01,2013-12-22 03:29:00,
2013-12-21 21:34:00,67.5,67.5,29.74,SSE,149,5.4,5.4,100,0.00,,SKC,0.00,VWS V14.01,2013-12-22 03:34:00,
2013-12-21 21:39:00,67.5,67.5,29.74,SSE,166,8.7,8.7,100,0.00,,SKC,0.00,VWS V14.01,2013-12-22 03:39:00,
2013-12-21 21:44:00,67.5,67.5,29.74,SSE,167,10.1,10.1,100,0.00,,SKC,0.00,VWS V14.01,2013-12-22 03:44:00,
2013-12-21 21:49:00,67.5,67.5,29.71,SE,133,8.3,8.3,100,0.00,,SKC,0.00,VWS V14.01,2013-12-22 03:49:00,
2013-12-21 21:54:00,67.5,67.5,29.71,ESE,113,4.9,5.4,100,0.00,,SKC,0.00,VWS V14.01,2013-12-22 03:54:00,
2013-12-21 21:59:00,67.5,67.5,29.71,SSE,161,5.4,8.1,100,0.00,,SKC,0.00,VWS V14.01,2013-12-22 03:59:00,
2013-12-21 22:04:00,67.6,67.6,29.71,SSE,152,8.3,9.2,100,0.00,,SKC,0.00,VWS V14.01,2013-12-22 04:04:00,
2013-12-21 22:09:00,67.6,67.6,29.71,SSE,148,4.0,9.6,100,0.00,,SKC,0.00,VWS V14.01,2013-12-22 04:09:00,
2013-12-21 22:14:00,67.5,67.5,29.71,East,100,8.3,8.3,100,0.00,,SKC,0.00,VWS V14.01,2013-12-22 04:14:00,
2013-12-21 22:19:00,67.3,67.3,29.71,South,169,8.3,8.3,100,0.00,,SKC,0.00,VWS V14.01,2013-12-22 04:19:00,
2013-12-21 22:24:00,67.3,67.3,29.71,SE,146,5.4,5.4,100,0.00,,SKC,0.00,VWS V14.01,2013-12-22 04:24:00,
2013-12-21 22:29:00,67.3,67.3,29.71,SE,133,5.4,5.8,100,0.00,,SKC,0.00,VWS V14.01,2013-12-22 04:29:00,
2013-12-21 22:34:00,67.3,67.3,29.71,ESE,120,8.3,8.3,100,0.00,,SKC,0.00,VWS V14.01,2013-12-22 04:34:00,
2013-12-21 22:39:00,67.3,67.3,29.71,SE,146,4.9,12.8,100,0.00,,SKC,0.00,VWS V14.01,2013-12-22 04:39:00,
2013-12-21 22:44:00,67.3,67.3,29.71,SSE,155,10.5,10.5,100,0.00,,SKC,0.00,VWS V14.01,2013-12-22 04:44:00,
2013-12-21 22:49:00,67.1,67.1,29.71,SE,131,6.3,6.3,100,0.00,,SKC,0.00,VWS V14.01,2013-12-22 04:49:00,
2013-12-21 22:54:00,67.3,67.3,29.71,South,177,5.8,5.8,100,0.00,,SKC,0.00,VWS V14.01,2013-12-22 04:54:00,
2013-12-21 22:59:00,67.3,67.3,29.71,SE,139,3.1,3.6,100,0.00,,SKC,0.00,VWS V14.01,2013-12-22 04:59:00,
2013-12-21 23:01:00,67.3,67.3,29.71,SE,146,5.8,5.8,100,0.00,,SKC,0.00,VWS V14.01,2013-12-22 05:01:00,
2013-12-21 23:06:00,67.3,67.3,29.71,ESE,109,8.3,8.3,100,0.00,,SKC,0.00,VWS V14.01,2013-12-22 05:06:00,
2013-12-21 23:11:00,67.3,67.3,29.71,SSE,154,5.4,8.7,100,0.00,,SKC,0.00,VWS V14.01,2013-12-22 05:11:00,
2013-12-21 23:16:00,67.5,67.5,29.71,SSE,167,5.4,5.4,100,0.00,,SKC,0.00,VWS V14.01,2013-12-22 05:16:00,
2013-12-21 23:21:00,67.5,67.5,29.71,SE,135,6.3,6.3,100,0.00,,SKC,0.00,VWS V14.01,2013-12-22 05:21:00,
2013-12-21 23:26:00,67.5,67.5,29.71,SE,137,5.8,5.8,100,0.00,,SKC,0.00,VWS V14.01,2013-12-22 05:26:00,
2013-12-21 23:31:00,67.5,67.5,29.71,SSW,206,5.4,5.4,100,0.00,,SKC,0.00,VWS V14.01,2013-12-22 05:31:00,
2013-12-21 23:36:00,67.5,67.5,29.71,WSW,252,3.1,7.2,100,0.00,,SKC,0.00,VWS V14.01,2013-12-22 05:36:00,
2013-12-21 23:41:00,67.3,67.3,29.71,South,184,2.7,4.0,100,0.00,,SKC,0.00,VWS V14.01,2013-12-22 05:41:00,
2013-12-21 23:46:00,67.3,67.3,29.71,South,182,3.6,5.4,100,0.00,,SKC,0.00,VWS V14.01,2013-12-22 05:46:00,
2013-12-21 23:51:00,67.1,67.1,29.71,South,174,5.4,8.3,100,0.00,,SKC,0.00,VWS V14.01,2013-12-22 05:51:00,
2013-12-21 23:56:00,66.9,66.9,29.71,SSE,158,6.7,6.7,100,0.00,,SKC,0.00,VWS V14.01,2013-12-22 05:56:00,